createdAt,value
2019-04-29T00:01:00.231Z,75.13
2019-04-29T00:04:23.824Z,75.64
2019-04-29T00:07:46.869Z,75.29
2019-04-29T00:11:10.141Z,75.47
2019-04-29T00:14:34.544Z,75.45
2019-04-29T00:18:02.561Z,75.93
2019-04-29T00:21:25.879Z,75.11
2019-04-29T00:24:48.957Z,75.96
2019-04-29T00:28:12.153Z,75.50
2019-04-29T00:31:35.300Z,75.43
2019-04-29T00:34:58.843Z,75.53
2019-04-29T00:38:42.490Z,75.30
2019-04-29T00:42:22.273Z,75.53
2019-04-29T00:45:45.527Z,75.59
2019-04-29T00:49:09.032Z,75.34
2019-04-29T00:52:32.584Z,75.96
2019-04-29T00:55:55.883Z,75.66
2019-04-29T00:59:19.169Z,75.27
2019-04-29T01:02:42.384Z,75.62
2019-04-29T01:06:05.344Z,75.28
2019-04-29T01:09:28.793Z,75.73
2019-04-29T01:12:51.854Z,75.63
2019-04-29T01:16:14.915Z,75.89
2019-04-29T01:19:37.987Z,75.98
2019-04-29T01:23:01.025Z,76.36
2019-04-29T01:26:43.667Z,75.60
2019-04-29T01:30:08.492Z,75.69
2019-04-29T01:33:31.523Z,75.83
2019-04-29T01:36:54.614Z,75.15
2019-04-29T01:40:37.254Z,75.82
2019-04-29T01:44:02.984Z,76.45
2019-04-29T01:47:27.227Z,75.82
2019-04-29T01:50:50.250Z,75.83
2019-04-29T01:54:13.659Z,75.82
2019-04-29T01:57:36.733Z,76.11
2019-04-29T02:00:59.773Z,75.66
2019-04-29T02:04:22.843Z,75.57
2019-04-29T02:07:45.960Z,76.33
2019-04-29T02:11:08.993Z,75.71
2019-04-29T02:14:32.019Z,76.70
2019-04-29T02:17:55.247Z,75.95
2019-04-29T02:21:18.280Z,75.67
2019-04-29T02:24:45.060Z,76.13
2019-04-29T02:28:08.201Z,76.67
2019-04-29T02:31:37.528Z,76.10
2019-04-29T02:35:00.695Z,75.68
2019-04-29T02:38:39.212Z,75.88
2019-04-29T02:42:25.355Z,76.38
2019-04-29T02:45:48.419Z,75.46
2019-04-29T02:49:11.423Z,75.86
2019-04-29T02:52:34.640Z,76.21
2019-04-29T02:55:59.840Z,77.00
2019-04-29T02:59:28.787Z,76.06
2019-04-29T03:02:59.008Z,75.67
2019-04-29T03:06:21.983Z,76.16
2019-04-29T03:09:45.175Z,75.78
2019-04-29T03:13:08.156Z,76.30
2019-04-29T03:16:31.166Z,76.38
2019-04-29T03:20:13.641Z,76.39
2019-04-29T03:23:36.732Z,76.70
2019-04-29T03:26:59.967Z,76.21
2019-04-29T03:30:22.975Z,76.47
2019-04-29T03:33:46.072Z,76.87
2019-04-29T03:37:09.115Z,76.21
2019-04-29T03:40:32.635Z,76.70
2019-04-29T03:43:55.694Z,75.96
2019-04-29T03:47:19.253Z,77.05
2019-04-29T03:50:42.877Z,76.17
2019-04-29T03:54:08.811Z,76.63
2019-04-29T03:57:35.594Z,76.41
2019-04-29T04:01:06.753Z,76.02
2019-04-29T04:04:48.038Z,77.23
2019-04-29T04:08:33.490Z,77.17
2019-04-29T04:11:56.711Z,76.49
2019-04-29T04:15:19.861Z,77.22
2019-04-29T04:18:43.618Z,77.23
2019-04-29T04:22:06.739Z,76.80
2019-04-29T04:25:29.742Z,76.97
2019-04-29T04:28:52.739Z,76.97
2019-04-29T04:32:15.731Z,76.76
2019-04-29T04:35:38.806Z,77.18
2019-04-29T04:39:02.338Z,77.16
2019-04-29T04:42:29.908Z,77.73
2019-04-29T04:45:52.525Z,77.79
2019-04-29T04:49:16.021Z,77.59
2019-04-29T04:52:39.353Z,77.35
2019-04-29T04:56:02.411Z,77.01
2019-04-29T04:59:25.415Z,77.76
2019-04-29T05:02:48.377Z,77.18
2019-04-29T05:06:11.371Z,77.63
2019-04-29T05:09:34.718Z,77.57
2019-04-29T05:12:57.806Z,78.18
2019-04-29T05:16:21.039Z,78.63
2019-04-29T05:19:44.542Z,78.05
2019-04-29T05:23:07.667Z,77.61
2019-04-29T05:26:30.801Z,78.96
2019-04-29T05:29:54.110Z,77.59
2019-04-29T05:33:18.353Z,77.41
2019-04-29T05:36:49.113Z,76.92
2019-04-29T05:40:32.970Z,77.75
2019-04-29T05:44:18.815Z,78.16
2019-04-29T05:47:43.584Z,77.68
2019-04-29T05:51:27.300Z,78.21
2019-04-29T05:54:51.471Z,77.64
2019-04-29T05:58:14.490Z,78.14
2019-04-29T06:01:37.480Z,77.89
2019-04-29T06:05:00.563Z,77.64
2019-04-29T06:08:23.679Z,78.26
2019-04-29T06:11:47.069Z,78.99
2019-04-29T06:15:10.158Z,78.66
2019-04-29T06:18:33.192Z,78.08
2019-04-29T06:21:56.579Z,78.08
2019-04-29T06:25:19.698Z,77.82
2019-04-29T06:28:42.714Z,78.60
2019-04-29T06:32:06.079Z,78.57
2019-04-29T06:35:29.152Z,78.44
2019-04-29T06:38:52.156Z,77.76
2019-04-29T06:42:15.463Z,77.61
2019-04-29T06:45:40.133Z,76.43
2019-04-29T06:49:10.044Z,76.24
2019-04-29T06:52:28.226Z,76.56
2019-04-29T06:55:51.331Z,76.20
2019-04-29T06:59:14.434Z,75.99
2019-04-29T07:02:38.000Z,75.72
2019-04-29T07:06:01.051Z,75.90
2019-04-29T07:09:25.444Z,75.29
2019-04-29T07:12:48.586Z,74.81
2019-04-29T07:16:11.895Z,73.57
2019-04-29T07:19:34.904Z,73.05
2019-04-29T07:23:00.743Z,72.75
2019-04-29T07:26:23.006Z,72.62
2019-04-29T07:29:46.039Z,71.95
2019-04-29T07:33:09.424Z,71.51
2019-04-29T07:36:32.450Z,71.15
2019-04-29T07:39:55.635Z,70.73
2019-04-29T07:43:18.780Z,71.12
2019-04-29T07:47:02.327Z,70.87
2019-04-29T07:50:26.798Z,67.03
2019-04-29T07:53:49.898Z,66.43
2019-04-29T07:57:16.437Z,65.66
2019-04-29T08:00:39.062Z,64.53
2019-04-29T08:04:02.225Z,63.44
2019-04-29T08:07:25.499Z,62.08
2019-04-29T08:10:56.123Z,61.87
2019-04-29T08:14:13.994Z,63.59
2019-04-29T08:17:37.091Z,61.95
2019-04-29T08:21:00.213Z,62.42
2019-04-29T08:24:23.336Z,60.32
2019-04-29T08:27:46.745Z,57.68
2019-04-29T08:31:09.848Z,55.10
2019-04-29T08:34:32.847Z,57.14
2019-04-29T08:37:55.921Z,56.46
2019-04-29T08:41:21.541Z,55.73
2019-04-29T08:45:06.998Z,56.54
2019-04-29T08:48:30.164Z,53.63
2019-04-29T08:51:53.429Z,52.88
2019-04-29T08:55:19.327Z,50.62
2019-04-29T08:58:44.093Z,49.27
2019-04-29T09:02:10.157Z,51.43
2019-04-29T09:05:31.825Z,50.15
2019-04-29T09:08:59.406Z,48.34
2019-04-29T09:12:24.194Z,50.69
2019-04-29T09:15:45.406Z,47.59
2019-04-29T09:19:08.540Z,47.03
2019-04-29T09:22:33.516Z,46.05
2019-04-29T09:26:28.314Z,46.20
2019-04-29T09:29:54.242Z,46.05
2019-04-29T09:33:16.790Z,46.22
2019-04-29T09:36:43.842Z,47.76
2019-04-29T09:40:05.363Z,45.30
2019-04-29T09:43:40.321Z,43.90
2019-04-29T09:47:08.590Z,44.40
2019-04-29T09:50:34.294Z,43.65
2019-04-29T09:53:54.833Z,42.87
2019-04-29T09:57:18.356Z,45.86
2019-04-29T10:00:48.918Z,43.70
2019-04-29T10:04:30.500Z,42.20
2019-04-29T10:07:53.695Z,39.66
2019-04-29T10:11:16.815Z,39.57
2019-04-29T10:14:39.955Z,39.39
2019-04-29T10:18:10.395Z,40.64
2019-04-29T10:21:33.473Z,38.71
2019-04-29T10:24:58.422Z,35.57
2019-04-29T10:28:21.649Z,33.48
2019-04-29T10:31:45.066Z,34.55
2019-04-29T10:35:10.454Z,30.93
2019-04-29T10:38:33.580Z,29.34
2019-04-29T10:41:58.743Z,28.77
2019-04-29T10:45:36.655Z,28.71
2019-04-29T10:49:08.284Z,29.34
2019-04-29T10:52:34.572Z,32.93
2019-04-29T10:55:56.541Z,31.95
2019-04-29T10:59:19.948Z,34.32
2019-04-29T11:02:44.815Z,32.67
2019-04-29T11:06:08.533Z,31.59
2019-04-29T11:09:46.400Z,33.27
2019-04-29T11:13:10.442Z,36.36
2019-04-29T11:16:46.173Z,37.27
2019-04-29T11:19:58.708Z,32.21
2019-04-29T11:23:45.177Z,31.11
2019-04-29T11:27:18.571Z,30.30
2019-04-29T11:30:42.219Z,34.61
2019-04-29T11:34:28.186Z,34.27
2019-04-29T11:37:55.414Z,36.44
2019-04-29T11:41:19.783Z,35.09
2019-04-29T11:44:41.805Z,30.63
2019-04-29T11:48:05.351Z,31.60
2019-04-29T11:51:49.345Z,30.49
2019-04-29T11:55:03.303Z,29.95
2019-04-29T11:58:41.774Z,29.61
2019-04-29T12:02:44.189Z,29.48
2019-04-29T12:06:00.947Z,30.70
2019-04-29T12:09:25.382Z,31.22
2019-04-29T12:12:49.895Z,28.16
2019-04-29T12:16:34.273Z,29.47
2019-04-29T12:20:01.408Z,28.70
2019-04-29T12:23:24.582Z,33.07
2019-04-29T12:26:47.689Z,31.32
2019-04-29T12:30:13.445Z,30.84
2019-04-29T12:33:42.808Z,30.27
2019-04-29T12:37:15.788Z,30.31
2019-04-29T12:40:57.482Z,32.23
2019-04-29T12:44:35.455Z,34.31
2019-04-29T12:47:59.067Z,34.25
2019-04-29T12:51:22.345Z,35.70
2019-04-29T12:54:46.135Z,35.25
2019-04-29T12:58:10.938Z,32.29
2019-04-29T13:01:58.794Z,29.91
2019-04-29T13:05:57.273Z,30.94
2019-04-29T13:09:17.986Z,30.21
2019-04-29T13:12:44.463Z,28.80
2019-04-29T13:16:31.618Z,26.24
2019-04-29T13:20:07.410Z,28.19
2019-04-29T13:23:34.798Z,29.19
2019-04-29T13:26:54.614Z,26.49
2019-04-29T13:30:18.540Z,27.63
2019-04-29T13:33:41.742Z,24.21
2019-04-29T13:37:07.732Z,25.21
2019-04-29T13:40:32.951Z,25.25
2019-04-29T13:44:03.965Z,23.75
2019-04-29T13:47:50.654Z,26.82
2019-04-29T13:51:34.548Z,24.76
2019-04-29T13:54:44.250Z,27.34
2019-04-29T13:58:07.305Z,26.58
2019-04-29T14:01:57.854Z,25.84
2019-04-29T14:05:05.241Z,27.30
2019-04-29T14:08:30.543Z,24.69
2019-04-29T14:12:01.694Z,27.48
2019-04-29T14:15:20.636Z,27.03
2019-04-29T14:18:48.050Z,29.16
2019-04-29T14:22:21.513Z,29.80
2019-04-29T14:25:34.129Z,30.56
2019-04-29T14:28:57.901Z,28.21
2019-04-29T14:32:33.279Z,27.85
2019-04-29T14:35:55.563Z,28.54
2019-04-29T14:39:36.256Z,31.10
2019-04-29T14:43:28.883Z,33.74
2019-04-29T14:46:56.917Z,34.16
2019-04-29T14:50:20.812Z,31.57
2019-04-29T14:53:55.618Z,33.03
2019-04-29T14:57:09.411Z,33.57
2019-04-29T15:01:01.695Z,33.36
2019-04-29T15:04:28.117Z,33.87
2019-04-29T15:07:51.196Z,34.04
2019-04-29T15:11:14.497Z,34.96
2019-04-29T15:14:47.966Z,35.50
2019-04-29T15:18:23.807Z,35.19
2019-04-29T15:21:48.554Z,35.34
2019-04-29T15:25:11.850Z,35.73
2019-04-29T15:28:50.006Z,36.75
2019-04-29T15:32:13.520Z,37.02
2019-04-29T15:35:37.674Z,37.68
2019-04-29T15:39:09.677Z,37.88
2019-04-29T15:42:27.657Z,38.07
2019-04-29T15:45:50.770Z,38.71
2019-04-29T15:49:15.297Z,38.21
2019-04-29T15:52:39.389Z,40.82
2019-04-29T15:56:07.128Z,38.24
2019-04-29T15:59:27.635Z,39.11
2019-04-29T16:02:50.860Z,40.74
2019-04-29T16:06:39.995Z,39.53
2019-04-29T16:10:27.318Z,38.57
2019-04-29T16:14:08.265Z,39.92
2019-04-29T16:17:20.517Z,38.86
2019-04-29T16:20:41.225Z,39.28
2019-04-29T16:24:24.941Z,40.21
2019-04-29T16:27:29.658Z,41.29
2019-04-29T16:30:52.801Z,39.80
2019-04-29T16:34:16.999Z,40.04
2019-04-29T16:37:40.016Z,40.32
2019-04-29T16:41:24.622Z,40.98
2019-04-29T16:44:48.158Z,42.93
2019-04-29T16:48:11.550Z,43.04
2019-04-29T16:51:34.801Z,42.42
2019-04-29T16:55:04.146Z,42.08
2019-04-29T16:58:24.566Z,43.91
2019-04-29T17:01:47.636Z,45.96
2019-04-29T17:05:10.879Z,46.26
2019-04-29T17:09:02.930Z,45.77
2019-04-29T17:12:18.372Z,44.98
2019-04-29T17:15:44.460Z,45.61
2019-04-29T17:19:07.041Z,45.62
2019-04-29T17:22:30.027Z,46.15
2019-04-29T17:25:53.017Z,46.35
2019-04-29T17:29:55.451Z,46.44
2019-04-29T17:33:49.717Z,46.53
2019-04-29T17:37:11.423Z,48.29
2019-04-29T17:40:34.608Z,47.98
2019-04-29T17:44:18.622Z,47.13
2019-04-29T17:47:56.709Z,48.33
2019-04-29T17:51:20.335Z,49.89
2019-04-29T17:54:45.387Z,48.47
2019-04-29T17:58:13.142Z,48.24
2019-04-29T18:02:02.911Z,49.42
2019-04-29T18:05:57.064Z,49.14
2019-04-29T18:09:36.927Z,50.09
2019-04-29T18:12:59.952Z,48.68
2019-04-29T18:16:29.107Z,51.40
2019-04-29T18:20:13.626Z,50.42
2019-04-29T18:23:59.448Z,49.91
2019-04-29T18:27:25.309Z,51.82
2019-04-29T18:30:49.762Z,51.09
2019-04-29T18:34:15.289Z,52.30
2019-04-29T18:37:41.499Z,52.64
2019-04-29T18:41:04.582Z,53.36
2019-04-29T18:44:27.829Z,53.76
2019-04-29T18:47:55.435Z,54.20
2019-04-29T18:51:25.679Z,53.83
2019-04-29T18:54:49.189Z,54.82
2019-04-29T18:58:16.008Z,54.99
2019-04-29T19:01:39.386Z,53.19
2019-04-29T19:05:12.402Z,54.64
2019-04-29T19:08:38.953Z,54.55
2019-04-29T19:12:02.148Z,53.96
2019-04-29T19:15:28.633Z,55.39
2019-04-29T19:18:56.518Z,57.28
2019-04-29T19:22:17.695Z,56.42
2019-04-29T19:25:46.468Z,56.28
2019-04-29T19:29:12.339Z,56.77
2019-04-29T19:32:36.644Z,56.94
2019-04-29T19:36:00.366Z,57.59
2019-04-29T19:39:25.493Z,59.33
2019-04-29T19:42:49.784Z,59.48
2019-04-29T19:46:22.672Z,60.44
2019-04-29T19:49:44.290Z,59.65
2019-04-29T19:53:08.718Z,60.44
2019-04-29T19:56:36.256Z,59.80
2019-04-29T20:00:07.017Z,60.17
2019-04-29T20:03:37.656Z,61.30
2019-04-29T20:07:06.084Z,60.40
2019-04-29T20:10:29.059Z,62.35
2019-04-29T20:14:05.843Z,61.94
2019-04-29T20:17:39.006Z,61.91
2019-04-29T20:23:27.698Z,61.12
2019-04-29T20:24:32.343Z,61.39
2019-04-29T20:28:05.447Z,62.16
2019-04-29T20:31:22.490Z,61.40
2019-04-29T20:34:46.455Z,61.10
2019-04-29T20:38:09.913Z,62.35
2019-04-29T20:41:40.642Z,62.51
2019-04-29T20:45:00.373Z,62.58
2019-04-29T20:48:24.352Z,62.52
2019-04-29T20:51:52.312Z,61.33
2019-04-29T20:55:15.800Z,61.28
2019-04-29T20:58:39.206Z,60.96
2019-04-29T21:02:12.448Z,61.88
2019-04-29T21:05:46.697Z,61.30
2019-04-29T21:08:58.418Z,61.73
2019-04-29T21:12:46.269Z,62.61
2019-04-29T21:16:16.836Z,61.94
2019-04-29T21:19:40.052Z,60.49
2019-04-29T21:23:06.402Z,61.28
2019-04-29T21:26:29.541Z,60.18
2019-04-29T21:29:53.993Z,60.75
2019-04-29T21:33:20.979Z,59.80
2019-04-29T21:37:01.680Z,60.83
2019-04-29T21:40:32.133Z,60.62
2019-04-29T21:43:56.093Z,61.63
2019-04-29T21:47:19.838Z,61.59
2019-04-29T21:50:44.802Z,60.99
2019-04-29T21:54:09.571Z,61.24
2019-04-29T21:57:35.321Z,61.15
2019-04-29T22:00:59.821Z,61.60
2019-04-29T22:04:23.140Z,61.37
2019-04-29T22:07:47.661Z,62.68
2019-04-29T22:11:10.921Z,61.75
2019-04-29T22:14:34.886Z,61.54
2019-04-29T22:18:01.286Z,63.26
2019-04-29T22:21:23.540Z,62.96
2019-04-29T22:24:46.967Z,62.76
2019-04-29T22:28:10.812Z,63.00
2019-04-29T22:31:38.181Z,62.04
2019-04-29T22:35:01.605Z,63.20
2019-04-29T22:38:25.110Z,63.19
2019-04-29T22:42:05.067Z,61.94
2019-04-29T22:45:29.613Z,63.45
2019-04-29T22:48:55.723Z,63.17
2019-04-29T22:52:20.050Z,63.56
2019-04-29T22:55:45.102Z,64.43
2019-04-29T22:59:08.355Z,63.64
2019-04-29T23:02:33.485Z,63.57
2019-04-29T23:06:00.132Z,63.64
2019-04-29T23:09:21.624Z,64.04
2019-04-29T23:12:45.172Z,64.15
2019-04-29T23:16:08.450Z,64.52
2019-04-29T23:19:31.930Z,64.72
2019-04-29T23:23:00.280Z,64.61
2019-04-29T23:26:24.964Z,64.57
2019-04-29T23:29:48.170Z,65.12
2019-04-29T23:33:11.335Z,65.59
2019-04-29T23:36:34.441Z,65.84
2019-04-29T23:39:57.607Z,65.88
2019-04-29T23:43:25.372Z,66.21
2019-04-29T23:46:47.460Z,66.77
2019-04-29T23:50:14.085Z,66.06
2019-04-29T23:53:36.022Z,67.03
2019-04-29T23:57:16.334Z,66.72
